createdAt,value
2019-05-15T00:00:50.818Z,11.40
2019-05-15T00:01:50.833Z,11.42
2019-05-15T00:02:50.839Z,11.42
2019-05-15T00:03:50.858Z,11.44
2019-05-15T00:04:50.870Z,11.37
2019-05-15T00:05:50.882Z,11.35
2019-05-15T00:06:50.893Z,11.36
2019-05-15T00:07:50.942Z,11.25
2019-05-15T00:08:50.930Z,11.28
2019-05-15T00:09:50.936Z,11.33
2019-05-15T00:10:51.001Z,11.29
2019-05-15T00:11:50.964Z,11.37
2019-05-15T00:12:50.996Z,11.29
2019-05-15T00:13:50.989Z,11.29
2019-05-15T00:14:51.001Z,11.27
2019-05-15T00:15:51.013Z,11.28
2019-05-15T00:16:51.037Z,11.32
2019-05-15T00:17:51.036Z,11.21
2019-05-15T00:18:51.050Z,11.35
2019-05-15T00:19:51.067Z,11.40
2019-05-15T00:20:51.082Z,11.29
2019-05-15T00:21:51.091Z,11.35
2019-05-15T00:22:51.102Z,11.32
2019-05-15T00:25:52.692Z,11.29
2019-05-15T00:26:51.159Z,11.28
2019-05-15T00:27:51.186Z,11.27
2019-05-15T00:28:51.181Z,11.21
2019-05-15T00:29:51.194Z,11.18
2019-05-15T00:30:51.207Z,11.11
2019-05-15T00:31:51.222Z,11.03
2019-05-15T00:32:51.233Z,11.09
2019-05-15T00:33:51.253Z,11.07
2019-05-15T00:34:51.270Z,11.00
2019-05-15T00:35:51.262Z,10.94
2019-05-15T00:36:51.284Z,10.97
2019-05-15T00:37:51.287Z,10.91
2019-05-15T00:38:51.303Z,10.92
2019-05-15T00:39:51.329Z,10.96
2019-05-15T00:40:51.334Z,10.92
2019-05-15T00:41:54.570Z,11.03
2019-05-15T00:42:51.376Z,11.04
2019-05-15T00:43:51.370Z,10.96
2019-05-15T00:44:51.380Z,10.92
2019-05-15T00:45:51.399Z,10.88
2019-05-15T00:46:51.414Z,10.88
2019-05-15T00:47:51.427Z,10.94
2019-05-15T00:48:51.456Z,10.85
2019-05-15T00:49:51.445Z,10.88
2019-05-15T00:50:51.457Z,10.79
2019-05-15T00:51:51.470Z,10.85
2019-05-15T00:52:51.480Z,10.78
2019-05-15T00:53:51.596Z,10.78
2019-05-15T00:55:52.758Z,10.67
2019-05-15T00:56:51.943Z,10.61
2019-05-15T00:57:51.550Z,10.64
2019-05-15T00:58:51.558Z,10.66
2019-05-15T00:59:51.578Z,10.71
2019-05-15T01:00:51.583Z,10.63
2019-05-15T01:01:51.610Z,10.61
2019-05-15T01:02:51.611Z,10.59
2019-05-15T01:03:51.625Z,10.53
2019-05-15T01:04:51.643Z,10.52
2019-05-15T01:05:51.665Z,10.60
2019-05-15T01:06:52.729Z,10.61
2019-05-15T01:07:51.677Z,10.63
2019-05-15T01:08:51.789Z,10.48
2019-05-15T01:09:51.749Z,10.61
2019-05-15T01:10:51.715Z,10.59
2019-05-15T01:11:51.880Z,10.56
2019-05-15T01:12:52.365Z,10.48
2019-05-15T01:13:51.752Z,10.52
2019-05-15T01:14:51.763Z,10.48
2019-05-15T01:15:51.783Z,10.48
2019-05-15T01:16:51.792Z,10.42
2019-05-15T01:17:51.839Z,10.47
2019-05-15T01:18:52.053Z,10.48
2019-05-15T01:19:51.827Z,10.45
2019-05-15T01:20:51.841Z,10.40
2019-05-15T01:21:51.853Z,10.36
2019-05-15T01:22:51.874Z,10.41
2019-05-15T01:23:51.877Z,10.36
2019-05-15T01:24:51.892Z,10.41
2019-05-15T01:25:51.906Z,10.48
2019-05-15T01:27:52.029Z,10.32
2019-05-15T01:28:52.079Z,10.32
2019-05-15T01:29:51.955Z,10.38
2019-05-15T01:30:51.973Z,10.42
2019-05-15T01:31:51.997Z,10.38
2019-05-15T01:32:51.990Z,10.36
2019-05-15T01:33:52.003Z,10.40
2019-05-15T01:34:52.019Z,10.42
2019-05-15T01:35:52.036Z,10.38
2019-05-15T01:36:52.042Z,10.38
2019-05-15T01:37:52.077Z,10.25
2019-05-15T01:38:52.070Z,10.32
2019-05-15T01:39:52.083Z,10.25
2019-05-15T01:40:52.100Z,10.17
2019-05-15T01:41:52.104Z,10.11
2019-05-15T01:42:53.370Z,10.11
2019-05-15T01:43:52.132Z,10.15
2019-05-15T01:44:52.146Z,10.15
2019-05-15T01:45:52.157Z,10.08
2019-05-15T01:46:52.170Z,10.12
2019-05-15T01:47:52.182Z,10.04
2019-05-15T01:48:52.194Z,10.04
2019-05-15T01:49:52.228Z,10.02
2019-05-15T01:50:52.231Z,10.02
2019-05-15T01:51:52.233Z,10.08
2019-05-15T01:52:52.353Z,10.04
2019-05-15T01:53:52.260Z,10.02
2019-05-15T01:54:52.270Z,10.07
2019-05-15T01:55:52.282Z,10.02
2019-05-15T01:56:52.345Z,9.90
2019-05-15T01:58:52.328Z,9.76
2019-05-15T01:59:57.235Z,9.75
2019-05-15T02:00:52.403Z,9.84
2019-05-15T02:01:52.366Z,9.72
2019-05-15T02:02:52.372Z,9.71
2019-05-15T02:03:52.383Z,9.69
2019-05-15T02:04:52.394Z,9.68
2019-05-15T02:05:52.408Z,9.75
2019-05-15T02:06:52.418Z,9.68
2019-05-15T02:07:52.442Z,9.72
2019-05-15T02:08:52.454Z,9.66
2019-05-15T02:09:52.457Z,9.69
2019-05-15T02:10:52.471Z,9.65
2019-05-15T02:11:52.481Z,9.71
2019-05-15T02:12:52.499Z,9.69
2019-05-15T02:13:52.504Z,9.69
2019-05-15T02:14:52.526Z,9.72
2019-05-15T02:15:52.740Z,9.74
2019-05-15T02:16:52.542Z,9.84
2019-05-15T02:17:52.557Z,9.75
2019-05-15T02:18:52.574Z,9.74
2019-05-15T02:19:52.588Z,9.65
2019-05-15T02:20:52.601Z,9.56
2019-05-15T02:21:52.611Z,9.58
2019-05-15T02:22:52.620Z,9.61
2019-05-15T02:23:52.629Z,9.58
2019-05-15T02:24:52.643Z,9.47
2019-05-15T02:25:52.659Z,9.51
2019-05-15T02:26:52.669Z,9.56
2019-05-15T02:27:52.680Z,9.54
2019-05-15T02:28:52.693Z,9.48
2019-05-15T02:29:52.729Z,9.43
2019-05-15T02:30:52.720Z,9.48
2019-05-15T02:31:52.730Z,9.48
2019-05-15T02:32:52.758Z,9.51
2019-05-15T02:33:52.752Z,9.56
2019-05-15T02:34:52.773Z,9.48
2019-05-15T02:35:52.782Z,9.42
2019-05-15T02:36:52.791Z,9.36
2019-05-15T02:37:52.812Z,9.40
2019-05-15T02:38:52.825Z,9.39
2019-05-15T02:39:52.833Z,9.40
2019-05-15T02:40:52.845Z,9.42
2019-05-15T02:41:52.852Z,9.39
2019-05-15T02:42:52.867Z,9.47
2019-05-15T02:43:52.886Z,9.46
2019-05-15T02:44:52.898Z,9.38
2019-05-15T02:45:52.904Z,9.48
2019-05-15T02:46:52.913Z,9.46
2019-05-15T02:47:52.927Z,9.46
2019-05-15T02:48:52.943Z,9.40
2019-05-15T02:49:52.952Z,9.43
2019-05-15T02:50:52.980Z,9.48
2019-05-15T02:51:52.980Z,9.47
2019-05-15T02:52:52.986Z,9.40
2019-05-15T02:53:52.999Z,9.40
2019-05-15T02:54:53.018Z,9.38
2019-05-15T02:55:53.023Z,9.39
2019-05-15T02:56:53.037Z,9.43
2019-05-15T02:57:53.049Z,9.43
2019-05-15T02:58:53.067Z,9.38
2019-05-15T02:59:53.104Z,9.47
2019-05-15T03:00:53.675Z,9.42
2019-05-15T03:01:53.097Z,9.46
2019-05-15T03:02:53.113Z,9.40
2019-05-15T03:03:53.124Z,9.33
2019-05-15T03:04:53.131Z,9.38
2019-05-15T03:05:53.154Z,9.38
2019-05-15T03:06:53.180Z,9.33
2019-05-15T03:07:53.171Z,9.20
2019-05-15T03:08:53.178Z,9.28
2019-05-15T03:09:53.195Z,9.26
2019-05-15T03:10:53.204Z,9.23
2019-05-15T03:11:53.219Z,9.28
2019-05-15T03:12:53.239Z,9.14
2019-05-15T03:13:53.244Z,9.20
2019-05-15T03:14:53.265Z,9.18
2019-05-15T03:15:53.267Z,9.14
2019-05-15T03:16:53.279Z,9.14
2019-05-15T03:17:53.289Z,9.11
2019-05-15T03:18:55.733Z,9.08
2019-05-15T03:19:53.321Z,9.08
2019-05-15T03:20:53.335Z,9.11
2019-05-15T03:21:53.336Z,9.10
2019-05-15T03:22:53.376Z,9.10
2019-05-15T03:23:53.367Z,9.04
2019-05-15T03:24:53.372Z,8.99
2019-05-15T03:25:53.393Z,9.01
2019-05-15T03:26:53.400Z,8.95
2019-05-15T03:27:53.410Z,8.99
2019-05-15T03:28:53.419Z,8.96
2019-05-15T03:29:53.436Z,8.95
2019-05-15T03:31:32.621Z,8.99
2019-05-15T03:32:09.213Z,8.96
2019-05-15T03:33:01.480Z,8.91
2019-05-15T03:33:54.811Z,8.87
2019-05-15T03:34:56.888Z,8.77
2019-05-15T03:35:54.827Z,8.84
2019-05-15T03:36:53.715Z,8.79
2019-05-15T03:37:53.536Z,8.87
2019-05-15T03:38:53.539Z,8.81
2019-05-15T03:39:53.563Z,8.87
2019-05-15T03:40:53.565Z,8.83
2019-05-15T03:41:53.585Z,8.91
2019-05-15T03:42:53.594Z,8.84
2019-05-15T03:43:53.603Z,8.87
2019-05-15T03:44:53.620Z,8.79
2019-05-15T03:45:53.625Z,8.79
2019-05-15T03:46:53.660Z,8.87
2019-05-15T03:47:53.665Z,8.81
2019-05-15T03:48:53.657Z,8.87
2019-05-15T03:49:53.673Z,8.92
2019-05-15T03:50:53.692Z,8.83
2019-05-15T03:51:53.695Z,8.83
2019-05-15T03:52:53.738Z,8.83
2019-05-15T03:53:53.721Z,8.73
2019-05-15T03:54:53.744Z,8.71
2019-05-15T03:55:53.752Z,8.74
2019-05-15T03:56:53.761Z,8.76
2019-05-15T03:57:53.774Z,8.70
2019-05-15T03:58:53.782Z,8.68
2019-05-15T03:59:53.793Z,8.76
2019-05-15T04:00:53.801Z,8.73
2019-05-15T04:01:53.841Z,8.68
2019-05-15T04:02:53.834Z,8.61
2019-05-15T04:03:53.841Z,8.68
2019-05-15T04:04:57.211Z,8.70
2019-05-15T04:05:53.863Z,8.58
2019-05-15T04:06:53.879Z,8.65
2019-05-15T04:07:53.888Z,8.68
2019-05-15T04:08:54.000Z,8.71
2019-05-15T04:09:53.911Z,8.65
2019-05-15T04:10:53.924Z,8.58
2019-05-15T04:11:53.940Z,8.74
2019-05-15T04:12:53.952Z,8.76
2019-05-15T04:13:53.966Z,8.68
2019-05-15T04:14:53.970Z,8.70
2019-05-15T04:15:53.983Z,8.73
2019-05-15T04:16:53.989Z,8.73
2019-05-15T04:17:53.998Z,8.59
2019-05-15T04:18:54.016Z,8.68
2019-05-15T04:19:54.023Z,8.73
2019-05-15T04:20:54.035Z,8.65
2019-05-15T04:21:54.053Z,8.73
2019-05-15T04:22:54.062Z,8.66
2019-05-15T04:23:54.070Z,8.68
2019-05-15T04:24:54.099Z,8.70
2019-05-15T04:25:54.092Z,8.81
2019-05-15T04:26:54.109Z,8.80
2019-05-15T04:27:54.141Z,8.84
2019-05-15T04:28:54.128Z,8.83
2019-05-15T04:29:54.141Z,8.76
2019-05-15T04:30:54.158Z,8.81
2019-05-15T04:32:01.179Z,8.84
2019-05-15T04:32:54.184Z,8.83
2019-05-15T04:33:54.193Z,8.87
2019-05-15T04:34:54.201Z,8.95
2019-05-15T04:35:54.315Z,8.98
2019-05-15T04:37:54.239Z,9.04
2019-05-15T04:38:54.267Z,9.11
2019-05-15T04:39:54.271Z,9.21
2019-05-15T04:40:54.270Z,9.18
2019-05-15T04:41:54.283Z,9.14
2019-05-15T04:42:54.295Z,9.15
2019-05-15T04:43:54.309Z,9.10
2019-05-15T04:44:54.325Z,9.10
2019-05-15T04:45:54.333Z,9.20
2019-05-15T04:46:54.373Z,9.11
2019-05-15T04:47:54.358Z,9.18
2019-05-15T04:48:54.402Z,9.21
2019-05-15T04:49:54.379Z,9.11
2019-05-15T04:50:54.405Z,9.20
2019-05-15T04:51:54.400Z,9.14
2019-05-15T04:52:54.416Z,9.18
2019-05-15T04:53:54.441Z,9.29
2019-05-15T04:54:54.448Z,9.31
2019-05-15T04:55:54.491Z,9.29
2019-05-15T04:56:54.475Z,9.23
2019-05-15T04:57:54.505Z,9.26
2019-05-15T04:58:54.523Z,9.24
2019-05-15T04:59:54.706Z,9.24
2019-05-15T05:00:54.521Z,9.36
2019-05-15T05:02:12.981Z,9.35
2019-05-15T05:02:54.622Z,9.39
2019-05-15T05:03:54.559Z,9.38
2019-05-15T05:04:54.560Z,9.43
2019-05-15T05:05:54.573Z,9.50
2019-05-15T05:06:54.599Z,9.46
2019-05-15T05:07:54.597Z,9.47
2019-05-15T05:08:54.640Z,9.50
2019-05-15T05:09:54.622Z,9.54
2019-05-15T05:10:54.658Z,9.61
2019-05-15T05:11:54.646Z,9.47
2019-05-15T05:12:54.821Z,9.58
2019-05-15T05:13:54.996Z,9.58
2019-05-15T05:15:54.849Z,9.60
2019-05-15T05:16:54.711Z,9.61
2019-05-15T05:17:54.723Z,9.66
2019-05-15T05:18:54.744Z,9.68
2019-05-15T05:19:54.852Z,9.72
2019-05-15T05:20:54.755Z,9.71
2019-05-15T05:21:54.766Z,9.83
2019-05-15T05:22:54.787Z,9.86
2019-05-15T05:23:54.788Z,9.79
2019-05-15T05:24:54.811Z,9.84
2019-05-15T05:25:54.839Z,9.84
2019-05-15T05:26:54.827Z,9.74
2019-05-15T05:27:54.859Z,9.81
2019-05-15T05:28:54.857Z,9.89
2019-05-15T05:29:54.863Z,9.91
2019-05-15T05:30:54.875Z,9.87
2019-05-15T05:31:54.890Z,9.89
2019-05-15T05:32:54.901Z,9.91
2019-05-15T05:33:55.168Z,9.96
2019-05-15T05:34:54.929Z,9.96
2019-05-15T05:35:54.941Z,9.94
2019-05-15T05:36:54.967Z,9.91
2019-05-15T05:37:54.965Z,9.90
2019-05-15T05:38:54.983Z,9.91
2019-05-15T05:39:54.993Z,9.91
2019-05-15T05:40:55.017Z,9.90
2019-05-15T05:41:55.034Z,9.94
2019-05-15T05:42:55.026Z,9.94
2019-05-15T05:43:55.058Z,9.97
2019-05-15T05:44:55.054Z,10.04
2019-05-15T05:45:55.115Z,10.12
2019-05-15T05:46:55.162Z,10.15
2019-05-15T05:47:55.111Z,10.18
2019-05-15T05:48:55.096Z,10.23
2019-05-15T05:49:55.117Z,10.27
2019-05-15T05:50:55.127Z,10.29
2019-05-15T05:51:55.137Z,10.32
2019-05-15T05:52:55.144Z,10.36
2019-05-15T05:53:55.161Z,10.45
2019-05-15T05:54:55.184Z,10.51
2019-05-15T05:55:55.187Z,10.48
2019-05-15T05:56:55.203Z,10.51
2019-05-15T05:57:55.223Z,10.44
2019-05-15T05:58:55.216Z,10.45
2019-05-15T05:59:55.234Z,10.48
2019-05-15T06:00:55.258Z,10.52
2019-05-15T06:01:55.263Z,10.47
2019-05-15T06:02:55.295Z,10.41
2019-05-15T06:03:55.276Z,10.34
2019-05-15T06:05:55.377Z,10.48
2019-05-15T06:07:07.126Z,10.45
2019-05-15T06:07:55.331Z,10.56
2019-05-15T06:08:55.359Z,10.59
2019-05-15T06:09:55.354Z,10.66
2019-05-15T06:10:55.368Z,10.48
2019-05-15T06:11:55.477Z,10.60
2019-05-15T06:13:55.402Z,10.61
2019-05-15T06:14:55.417Z,10.63
2019-05-15T06:15:55.445Z,10.76
2019-05-15T06:16:55.443Z,10.78
2019-05-15T06:17:55.468Z,10.71
2019-05-15T06:18:55.471Z,10.71
2019-05-15T06:19:55.502Z,10.76
2019-05-15T06:20:55.492Z,10.74
2019-05-15T06:22:00.254Z,10.78
2019-05-15T06:22:57.903Z,10.82
2019-05-15T06:23:58.047Z,10.96
2019-05-15T06:24:57.804Z,11.10
2019-05-15T06:25:55.555Z,11.10
2019-05-15T06:26:55.564Z,11.10
2019-05-15T06:27:55.577Z,11.09
2019-05-15T06:28:58.141Z,11.11
2019-05-15T06:29:57.905Z,11.15
2019-05-15T06:31:00.371Z,11.18
2019-05-15T06:31:55.630Z,11.11
2019-05-15T06:33:08.245Z,11.14
2019-05-15T06:34:57.791Z,11.11
2019-05-15T06:35:55.676Z,11.09
2019-05-15T06:36:55.692Z,11.10
2019-05-15T06:37:55.711Z,11.15
2019-05-15T06:38:55.736Z,11.18
2019-05-15T06:39:55.748Z,11.28
2019-05-15T06:41:55.762Z,11.25
2019-05-15T06:42:59.129Z,11.24
2019-05-15T06:43:55.915Z,11.22
2019-05-15T06:44:55.811Z,11.10
2019-05-15T06:45:58.274Z,11.21
2019-05-15T06:46:55.822Z,11.29
2019-05-15T06:47:57.814Z,11.36
2019-05-15T06:48:57.936Z,11.46
2019-05-15T06:49:57.869Z,11.35
2019-05-15T06:50:57.924Z,11.28
2019-05-15T06:51:57.999Z,11.44
2019-05-15T06:52:55.898Z,11.43
2019-05-15T06:53:58.196Z,11.49
2019-05-15T06:54:55.959Z,11.49
2019-05-15T06:55:58.292Z,11.52
2019-05-15T06:56:58.192Z,11.52
2019-05-15T06:57:58.458Z,11.49
2019-05-15T06:58:58.076Z,11.57
2019-05-15T06:59:57.957Z,11.51
2019-05-15T07:00:55.993Z,11.58
2019-05-15T07:01:59.151Z,11.58
2019-05-15T07:02:58.276Z,11.57
2019-05-15T07:03:56.038Z,11.57
2019-05-15T07:04:58.195Z,11.72
2019-05-15T07:05:59.468Z,11.61
2019-05-15T07:06:58.337Z,11.60
2019-05-15T07:07:58.465Z,11.60
2019-05-15T07:08:58.566Z,11.57
2019-05-15T07:09:58.160Z,11.62
2019-05-15T07:10:57.890Z,11.67
2019-05-15T07:11:56.136Z,11.76
2019-05-15T07:13:58.062Z,11.78
2019-05-15T07:14:58.219Z,11.85
2019-05-15T07:15:58.402Z,11.82
2019-05-15T07:16:56.194Z,11.88
2019-05-15T07:17:58.038Z,11.94
2019-05-15T07:18:58.716Z,11.86
2019-05-15T07:19:58.971Z,11.91
2019-05-15T07:20:58.067Z,12.02
2019-05-15T07:21:58.099Z,12.05
2019-05-15T07:22:58.625Z,11.98
2019-05-15T07:23:58.335Z,11.96
2019-05-15T07:24:58.220Z,12.02
2019-05-15T07:25:58.659Z,12.09
2019-05-15T07:26:59.062Z,12.14
2019-05-15T07:27:58.079Z,12.20
2019-05-15T07:28:56.350Z,12.14
2019-05-15T07:29:58.376Z,12.21
2019-05-15T07:31:58.463Z,12.19
2019-05-15T07:32:58.324Z,12.24
2019-05-15T07:33:56.411Z,12.23
2019-05-15T07:34:57.965Z,12.23
2019-05-15T07:35:58.820Z,12.28
2019-05-15T07:36:58.956Z,12.32
2019-05-15T07:37:58.578Z,12.41
2019-05-15T07:38:58.013Z,12.45
2019-05-15T07:39:58.875Z,12.50
2019-05-15T07:41:01.068Z,12.52
2019-05-15T07:41:57.851Z,12.52
2019-05-15T07:42:58.565Z,12.62
2019-05-15T07:43:58.629Z,12.67
2019-05-15T07:44:58.882Z,12.68
2019-05-15T07:45:58.794Z,12.70
2019-05-15T07:46:58.412Z,12.74
2019-05-15T07:47:58.515Z,12.77
2019-05-15T07:48:58.374Z,12.77
2019-05-15T07:49:58.750Z,12.87
2019-05-15T07:50:59.251Z,12.89
2019-05-15T07:51:59.019Z,12.87
2019-05-15T07:52:58.969Z,12.89
2019-05-15T07:53:58.320Z,12.92
2019-05-15T07:54:58.195Z,12.97
2019-05-15T07:56:00.630Z,12.86
2019-05-15T07:56:58.208Z,12.83
2019-05-15T07:57:59.022Z,12.86
2019-05-15T07:58:58.612Z,12.97
2019-05-15T07:59:58.688Z,12.89
2019-05-15T08:00:59.023Z,12.86
2019-05-15T08:01:58.123Z,12.87
2019-05-15T08:02:58.629Z,12.93
2019-05-15T08:06:02.303Z,12.96
2019-05-15T08:06:59.153Z,12.95
2019-05-15T08:07:58.121Z,12.97
2019-05-15T08:08:59.028Z,13.00
2019-05-15T08:09:59.207Z,12.90
2019-05-15T08:10:57.927Z,12.97
2019-05-15T08:12:00.158Z,12.95
2019-05-15T08:12:58.138Z,13.01
2019-05-15T08:13:58.162Z,12.92
2019-05-15T08:14:58.253Z,12.92
2019-05-15T08:15:58.001Z,12.90
2019-05-15T08:16:59.138Z,12.93
2019-05-15T08:18:05.522Z,13.05
2019-05-15T08:18:57.831Z,13.07
2019-05-15T08:19:58.240Z,13.25
2019-05-15T08:20:58.657Z,13.29
2019-05-15T08:21:58.159Z,13.29
2019-05-15T08:22:58.290Z,13.38
2019-05-15T08:23:59.025Z,13.39
2019-05-15T08:24:59.105Z,13.38
2019-05-15T08:25:57.883Z,13.45
2019-05-15T08:26:58.087Z,13.42
2019-05-15T08:27:58.986Z,13.57
2019-05-15T08:28:57.903Z,13.60
2019-05-15T08:29:58.144Z,13.63
2019-05-15T08:30:58.359Z,13.62
2019-05-15T08:31:58.978Z,13.59
2019-05-15T08:32:58.923Z,13.66
2019-05-15T08:34:12.318Z,13.55
2019-05-15T08:34:58.675Z,13.62
2019-05-15T08:35:58.840Z,13.55
2019-05-15T08:36:59.002Z,13.70
2019-05-15T08:37:58.078Z,13.66
2019-05-15T08:38:59.162Z,13.71
2019-05-15T08:39:59.607Z,13.81
2019-05-15T08:40:59.205Z,13.88
2019-05-15T08:41:58.449Z,13.82
2019-05-15T08:43:01.865Z,13.89
2019-05-15T08:43:58.005Z,13.89
2019-05-15T08:44:58.366Z,13.91
2019-05-15T08:45:58.681Z,13.88
2019-05-15T08:46:58.858Z,13.69
2019-05-15T08:47:58.623Z,13.82
2019-05-15T08:48:58.280Z,13.82
2019-05-15T08:50:58.083Z,13.84
2019-05-15T08:51:58.384Z,13.84
2019-05-15T08:52:57.952Z,13.89
2019-05-15T08:54:59.083Z,13.89
2019-05-15T08:55:58.785Z,13.96
2019-05-15T08:56:59.182Z,13.95
2019-05-15T08:58:07.169Z,14.02
2019-05-15T08:58:58.083Z,14.00
2019-05-15T08:59:58.302Z,14.07
2019-05-15T09:00:58.678Z,14.03
2019-05-15T09:01:58.259Z,13.97
2019-05-15T09:02:58.242Z,14.06
2019-05-15T09:03:58.211Z,14.22
2019-05-15T09:04:58.062Z,14.15
2019-05-15T09:07:01.145Z,14.29
2019-05-15T09:07:58.117Z,14.22
2019-05-15T09:08:58.572Z,14.17
2019-05-15T09:09:58.085Z,14.17
2019-05-15T09:10:58.744Z,14.25
2019-05-15T09:12:58.654Z,14.40
2019-05-15T09:15:58.904Z,14.37
2019-05-15T09:16:58.225Z,14.27
2019-05-15T09:18:11.648Z,14.22
2019-05-15T09:18:59.162Z,14.17
2019-05-15T09:19:58.819Z,14.21
2019-05-15T09:20:59.289Z,14.28
2019-05-15T09:21:58.610Z,14.47
2019-05-15T09:22:58.413Z,14.47
2019-05-15T09:23:59.119Z,14.52
2019-05-15T09:24:58.933Z,14.58
2019-05-15T09:25:58.236Z,14.64
2019-05-15T09:26:59.423Z,14.54
2019-05-15T09:27:58.316Z,14.51
2019-05-15T09:28:58.668Z,14.64
2019-05-15T09:29:59.178Z,14.70
2019-05-15T09:30:59.062Z,14.73
2019-05-15T09:31:58.859Z,14.60
2019-05-15T09:33:58.722Z,14.72
2019-05-15T09:34:59.328Z,14.78
2019-05-15T09:35:58.474Z,14.84
2019-05-15T09:36:59.974Z,14.89
2019-05-15T09:37:58.376Z,14.91
2019-05-15T09:38:58.569Z,14.94
2019-05-15T09:39:58.478Z,14.98
2019-05-15T09:40:58.629Z,14.95
2019-05-15T09:41:58.133Z,14.99
2019-05-15T09:42:58.399Z,15.11
2019-05-15T09:43:58.168Z,15.06
2019-05-15T09:44:58.408Z,15.10
2019-05-15T09:45:58.481Z,15.09
2019-05-15T09:46:58.543Z,15.14
2019-05-15T09:47:58.808Z,15.20
2019-05-15T09:48:59.292Z,15.25
2019-05-15T09:49:58.945Z,15.34
2019-05-15T09:50:58.870Z,15.44
2019-05-15T09:51:58.668Z,15.25
2019-05-15T09:52:59.053Z,15.28
2019-05-15T09:53:59.639Z,15.41
2019-05-15T09:54:59.282Z,15.41
2019-05-15T09:55:59.990Z,15.49
2019-05-15T09:56:58.614Z,15.47
2019-05-15T09:57:59.081Z,15.56
2019-05-15T09:58:58.894Z,15.56
2019-05-15T09:59:58.837Z,15.51
2019-05-15T10:00:59.081Z,15.44
2019-05-15T10:01:58.829Z,15.43
2019-05-15T10:02:58.412Z,15.57
2019-05-15T10:05:06.761Z,15.72
2019-05-15T10:05:58.457Z,15.80
2019-05-15T10:06:58.533Z,15.78
2019-05-15T10:08:58.487Z,15.74
2019-05-15T10:09:58.506Z,15.71
2019-05-15T10:10:59.383Z,15.76
2019-05-15T10:12:05.665Z,15.76
2019-05-15T10:13:59.141Z,15.76
2019-05-15T10:14:59.206Z,15.76
2019-05-15T10:16:58.612Z,15.80
2019-05-15T10:17:59.743Z,15.75
2019-05-15T10:18:58.629Z,15.83
2019-05-15T10:19:58.645Z,15.86
2019-05-15T10:20:58.655Z,15.89
2019-05-15T10:21:59.491Z,16.02
2019-05-15T10:22:59.098Z,15.96
2019-05-15T10:23:59.162Z,15.96
2019-05-15T10:25:59.055Z,16.08
2019-05-15T10:26:58.999Z,16.04
2019-05-15T10:27:58.812Z,16.05
2019-05-15T10:28:58.773Z,16.17
2019-05-15T10:29:58.936Z,16.23
2019-05-15T10:31:00.106Z,16.15
2019-05-15T10:31:58.812Z,16.08
2019-05-15T10:32:58.844Z,15.90
2019-05-15T10:33:58.843Z,15.75
2019-05-15T10:34:58.866Z,15.76
2019-05-15T10:35:59.204Z,15.65
2019-05-15T10:36:59.082Z,15.76
2019-05-15T10:37:59.499Z,15.90
2019-05-15T10:38:59.531Z,15.96
2019-05-15T10:39:58.924Z,15.96
2019-05-15T10:41:08.465Z,15.84
2019-05-15T10:41:58.974Z,15.62
2019-05-15T10:42:59.541Z,15.82
2019-05-15T10:44:00.437Z,15.94
2019-05-15T10:44:59.579Z,16.07
2019-05-15T10:45:59.212Z,16.07
2019-05-15T10:46:59.036Z,16.12
2019-05-15T10:47:59.049Z,15.93
2019-05-15T10:48:59.061Z,15.69
2019-05-15T10:50:00.127Z,15.68
2019-05-15T10:51:05.937Z,15.75
2019-05-15T10:51:59.128Z,15.89
2019-05-15T10:53:00.033Z,15.92
2019-05-15T10:53:59.137Z,15.78
2019-05-15T10:55:00.886Z,16.01
2019-05-15T10:55:59.617Z,16.07
2019-05-15T10:57:00.856Z,16.23
2019-05-15T10:57:59.455Z,16.49
2019-05-15T11:01:02.291Z,16.83
2019-05-15T11:02:00.136Z,16.93
2019-05-15T11:02:59.262Z,16.91
2019-05-15T11:03:59.515Z,16.75
2019-05-15T11:04:59.297Z,16.68
2019-05-15T11:05:59.313Z,16.63
2019-05-15T11:06:59.331Z,16.28
2019-05-15T11:07:59.330Z,16.34
2019-05-15T11:08:59.365Z,16.33
2019-05-15T11:09:59.353Z,16.21
2019-05-15T11:10:59.384Z,16.21
2019-05-15T11:11:59.383Z,16.35
2019-05-15T11:12:59.399Z,16.58
2019-05-15T11:14:00.592Z,16.60
2019-05-15T11:14:59.458Z,16.68
2019-05-15T11:15:59.449Z,16.63
2019-05-15T11:16:59.456Z,16.93
2019-05-15T11:17:59.468Z,16.89
2019-05-15T11:18:59.494Z,17.01
2019-05-15T11:19:59.508Z,17.06
2019-05-15T11:20:59.546Z,17.04
2019-05-15T11:21:59.549Z,17.21
2019-05-15T11:22:59.540Z,17.33
2019-05-15T11:23:59.599Z,17.43
2019-05-15T11:24:59.616Z,17.58
2019-05-15T11:25:59.583Z,17.63
2019-05-15T11:26:59.648Z,17.64
2019-05-15T11:27:59.609Z,17.74
2019-05-15T11:28:59.633Z,17.77
2019-05-15T11:29:59.638Z,17.84
2019-05-15T11:30:59.691Z,17.81
2019-05-15T11:31:59.667Z,17.44
2019-05-15T11:32:59.696Z,17.38
2019-05-15T11:33:59.701Z,17.37
2019-05-15T11:34:59.720Z,17.36
2019-05-15T11:36:05.524Z,16.83
2019-05-15T11:36:59.767Z,16.85
2019-05-15T11:37:59.772Z,16.97
2019-05-15T11:38:59.851Z,17.00
2019-05-15T11:39:59.796Z,17.04
2019-05-15T11:40:59.800Z,17.23
2019-05-15T11:42:00.258Z,17.34
2019-05-15T11:42:59.846Z,16.93
2019-05-15T11:43:59.848Z,16.35
2019-05-15T11:44:59.880Z,16.38
2019-05-15T11:45:59.876Z,16.60
2019-05-15T11:46:59.938Z,16.76
2019-05-15T11:48:00.969Z,17.14
2019-05-15T11:48:59.930Z,17.43
2019-05-15T11:49:59.932Z,17.62
2019-05-15T11:50:59.949Z,17.56
2019-05-15T11:52:00.715Z,17.72
2019-05-15T11:52:59.982Z,17.86
2019-05-15T11:54:00.010Z,17.93
2019-05-15T11:55:00.031Z,17.81
2019-05-15T11:56:00.326Z,17.66
2019-05-15T11:57:00.042Z,17.43
2019-05-15T11:58:00.193Z,17.00
2019-05-15T11:59:00.063Z,17.04
2019-05-15T12:00:00.203Z,17.41
2019-05-15T12:01:00.163Z,17.51
2019-05-15T12:02:00.165Z,17.41
2019-05-15T12:03:00.201Z,17.33
2019-05-15T12:04:00.217Z,16.97
2019-05-15T12:05:00.739Z,16.94
2019-05-15T12:06:14.882Z,16.91
2019-05-15T12:07:02.626Z,16.89
2019-05-15T12:08:00.196Z,17.19
2019-05-15T12:09:00.208Z,17.33
2019-05-15T12:10:00.300Z,16.97
2019-05-15T12:11:00.253Z,17.21
2019-05-15T12:12:00.264Z,17.33
2019-05-15T12:13:00.270Z,17.16
2019-05-15T12:14:00.281Z,17.11
2019-05-15T12:15:00.299Z,17.22
2019-05-15T12:16:00.316Z,17.33
2019-05-15T12:18:00.347Z,17.28
2019-05-15T12:19:08.893Z,17.38
2019-05-15T12:20:05.596Z,17.19
2019-05-15T12:21:00.392Z,16.88
2019-05-15T12:22:00.399Z,16.75
2019-05-15T12:23:00.422Z,17.08
2019-05-15T12:24:00.428Z,17.37
2019-05-15T12:25:01.379Z,17.62
2019-05-15T12:26:00.465Z,17.95
2019-05-15T12:27:13.731Z,18.39
2019-05-15T12:28:00.510Z,18.60
2019-05-15T12:29:00.511Z,18.73
2019-05-15T12:30:00.518Z,18.70
2019-05-15T12:31:00.535Z,18.90
2019-05-15T12:32:11.706Z,19.18
2019-05-15T12:33:00.698Z,19.28
2019-05-15T12:34:00.605Z,19.58
2019-05-15T12:35:00.608Z,19.08
2019-05-15T12:36:00.623Z,19.13
2019-05-15T12:37:00.622Z,19.40
2019-05-15T12:38:00.663Z,19.78
2019-05-15T12:39:09.022Z,19.61
2019-05-15T13:00:01.006Z,19.62
2019-05-15T13:01:12.818Z,19.99
2019-05-15T13:02:01.040Z,20.36
2019-05-15T13:03:01.099Z,20.43
2019-05-15T13:04:01.096Z,20.33
2019-05-15T13:05:01.115Z,20.32
2019-05-15T13:06:01.126Z,20.41
2019-05-15T13:07:12.881Z,20.55
2019-05-15T13:08:01.175Z,20.88
2019-05-15T13:09:01.188Z,20.97
2019-05-15T13:10:01.212Z,21.09
2019-05-15T13:11:01.231Z,21.06
2019-05-15T13:12:01.287Z,21.12
2019-05-15T13:13:05.194Z,21.35
2019-05-15T13:14:01.302Z,21.62
2019-05-15T13:15:01.329Z,21.44
2019-05-15T13:16:01.352Z,21.19
2019-05-15T13:17:01.362Z,21.52
2019-05-15T13:18:01.381Z,21.64
2019-05-15T13:19:01.423Z,21.67
2019-05-15T13:20:01.635Z,21.04
2019-05-15T13:21:01.454Z,20.54
2019-05-15T13:22:01.473Z,20.66
2019-05-15T13:23:01.493Z,21.61
2019-05-15T13:24:01.515Z,20.87
2019-05-15T13:25:01.564Z,20.47
2019-05-15T13:26:01.557Z,21.25
2019-05-15T13:27:01.590Z,20.73
2019-05-15T13:28:01.611Z,20.43
2019-05-15T13:29:01.639Z,20.28
2019-05-15T13:30:01.638Z,20.02
2019-05-15T13:31:01.662Z,19.80
2019-05-15T13:32:01.681Z,19.74
2019-05-15T13:33:01.718Z,19.58
2019-05-15T13:34:01.733Z,19.28
2019-05-15T13:35:01.753Z,19.29
2019-05-15T13:36:01.756Z,19.11
2019-05-15T13:37:01.774Z,18.87
2019-05-15T13:38:01.788Z,18.76
2019-05-15T13:39:01.807Z,18.76
2019-05-15T13:40:01.826Z,19.88
2019-05-15T13:41:01.876Z,20.36
2019-05-15T13:42:01.880Z,20.26
2019-05-15T13:43:01.880Z,20.41
2019-05-15T13:44:02.002Z,21.29
2019-05-15T13:45:01.912Z,21.84
2019-05-15T13:46:01.944Z,22.36
2019-05-15T13:47:01.951Z,21.75
2019-05-15T13:48:02.003Z,21.38
2019-05-15T13:49:02.030Z,20.72
2019-05-15T13:50:02.021Z,20.95